Time;durP1;ratioP1;P1;durP2;ratioP2;P2;SDS_P1;SDS_P2;PMS_P1;PMS_P2;Temp;Humidity;BMP_temperature;BMP_pressure;BME280_temperature;BME280_humidity;BME280_pressure;Samples;Min_cycle;Max_cycle;Signal;HPM_P1;HPM_P2
2023/09/06 00:01:54;;;;;;;2.60;2.20;;;;;;;25.91;34.43;101192.82;103115;1297;73693;-86
2023/09/06 00:04:20;;;;;;;2.70;2.40;;;;;;;25.92;34.64;101189.46;103144;1303;69379;-86
2023/09/06 00:06:45;;;;;;;2.80;2.50;;;;;;;25.91;34.48;101192.09;103255;1301;69810;-86
2023/09/06 00:09:11;;;;;;;2.20;2.00;;;;;;;25.91;34.49;101192.26;103141;1300;69392;-86
2023/09/06 00:11:36;;;;;;;2.90;2.60;;;;;;;25.91;34.30;101193.59;103195;1299;69246;-87
2023/09/06 00:14:03;;;;;;;2.20;2.00;;;;;;;25.91;34.52;101193.14;103070;1300;69176;-86
2023/09/06 00:16:29;;;;;;;3.40;2.30;;;;;;;25.90;34.53;101190.09;103163;1302;69252;-86
2023/09/06 00:18:56;;;;;;;2.80;2.40;;;;;;;25.90;34.58;101188.45;103130;1298;69283;-86
2023/09/06 00:21:23;;;;;;;3.00;2.60;;;;;;;25.90;34.34;101194.17;103234;1300;69184;-86
2023/09/06 00:23:49;;;;;;;3.10;2.50;;;;;;;25.90;34.44;101193.19;103232;1301;69194;-86
2023/09/06 00:26:23;;;;;;;2.70;2.50;;;;;;;25.90;34.59;101192.41;103049;1302;69336;-92
2023/09/06 00:28:49;;;;;;;2.50;2.30;;;;;;;25.89;34.37;101189.27;103091;1298;69312;-86
2023/09/06 00:31:15;;;;;;;3.00;2.50;;;;;;;25.89;34.35;101189.73;103215;1299;69268;-86
2023/09/06 00:33:41;;;;;;;3.30;2.50;;;;;;;25.90;34.35;101185.92;103103;1299;69268;-86
2023/09/06 00:36:07;;;;;;;3.10;2.30;;;;;;;25.89;34.36;101187.02;103188;1299;69125;-86
2023/09/06 00:38:32;;;;;;;2.90;2.40;;;;;;;25.89;34.26;101187.16;103192;1299;69885;-86
2023/09/06 00:40:58;;;;;;;4.00;2.60;;;;;;;25.89;34.39;101187.23;103051;1302;69302;-86
2023/09/06 00:43:23;;;;;;;2.40;2.20;;;;;;;25.89;34.56;101184.95;103237;1298;69287;-86
2023/09/06 00:45:50;;;;;;;3.80;2.60;;;;;;;25.88;34.59;101187.17;103322;1299;69153;-86
2023/09/06 00:48:26;;;;;;;2.90;2.50;;;;;;;25.88;34.45;101187.44;102999;1303;69592;-86
2023/09/06 00:50:55;;;;;;;2.70;2.10;;;;;;;25.88;34.32;101183.73;103171;1299;69281;-86
2023/09/06 00:53:21;;;;;;;3.20;2.40;;;;;;;25.87;34.20;101179.81;103190;1299;69060;-87
2023/09/06 00:55:48;;;;;;;2.50;2.30;;;;;;;25.88;34.51;101178.17;103011;1305;69200;-86
2023/09/06 00:58:17;;;;;;;2.60;2.40;;;;;;;25.87;34.46;101175.59;103111;1299;73612;-86
2023/09/06 01:00:47;;;;;;;2.40;2.20;;;;;;;25.87;34.29;101172.86;103173;1300;69219;-86
2023/09/06 01:03:12;;;;;;;3.10;2.60;;;;;;;25.87;34.42;101167.29;103033;1299;69064;-86
2023/09/06 01:05:56;;;;;;;3.80;2.60;;;;;;;25.87;34.60;101170.04;103179;1301;69380;-86
2023/09/06 01:08:28;;;;;;;3.00;2.30;;;;;;;25.86;34.55;101166.63;103300;1301;67962;-86
2023/09/06 01:10:53;;;;;;;2.60;2.40;;;;;;;25.86;34.52;101163.79;102945;1299;74263;-86
2023/09/06 01:13:19;;;;;;;2.90;2.30;;;;;;;25.86;34.17;101166.79;103105;1300;69287;-86
2023/09/06 01:15:45;;;;;;;2.70;2.20;;;;;;;25.86;34.33;101166.32;103230;1302;67909;-86
2023/09/06 01:18:12;;;;;;;2.40;2.20;;;;;;;25.86;34.23;101166.17;103136;1302;69369;-86
2023/09/06 01:20:43;;;;;;;3.40;2.40;;;;;;;25.85;34.24;101167.98;102992;1299;69288;-86
2023/09/06 01:23:34;;;;;;;3.40;2.30;;;;;;;25.85;34.23;101168.39;102885;1305;73394;-87
2023/09/06 01:26:08;;;;;;;2.90;2.30;;;;;;;25.84;34.22;101165.61;103119;1301;69189;-92
2023/09/06 01:28:33;;;;;;;3.90;2.20;;;;;;;25.85;34.34;101166.75;103058;1300;69183;-86
2023/09/06 01:30:59;;;;;;;2.50;2.20;;;;;;;25.84;34.08;101167.27;103069;1303;69207;-86
2023/09/06 01:33:27;;;;;;;2.60;2.40;;;;;;;25.84;34.21;101168.86;103102;1302;69216;-86
2023/09/06 01:35:53;;;;;;;2.50;2.30;;;;;;;25.84;34.33;101164.17;103190;1303;73735;-86
2023/09/06 01:38:18;;;;;;;2.70;2.40;;;;;;;25.84;34.02;101167.58;103187;1299;69291;-87
2023/09/06 01:40:44;;;;;;;2.70;2.30;;;;;;;25.85;34.15;101166.33;103087;1300;69271;-86
2023/09/06 01:43:09;;;;;;;2.80;2.30;;;;;;;25.84;34.20;101167.16;103150;1298;69342;-86
2023/09/06 01:45:43;;;;;;;2.60;2.30;;;;;;;25.84;34.24;101165.88;103199;1301;69341;-86
2023/09/06 01:48:09;;;;;;;2.90;2.50;;;;;;;25.84;34.21;101162.27;103180;1301;67372;-86
2023/09/06 01:50:34;;;;;;;2.30;2.10;;;;;;;25.84;34.16;101160.50;103175;1300;69205;-86
2023/09/06 01:53:00;;;;;;;2.40;2.10;;;;;;;25.84;34.11;101158.75;103179;1300;69390;-91
2023/09/06 01:55:26;;;;;;;2.90;2.10;;;;;;;25.83;34.07;101155.56;103028;1301;69277;-86
2023/09/06 01:57:51;;;;;;;3.00;2.20;;;;;;;25.83;34.24;101155.98;103045;1299;69360;-86
2023/09/06 02:02:48;;;;;;;3.00;2.50;;;;;;;25.83;34.34;101151.52;103151;1303;69234;-86
2023/09/06 02:05:14;;;;;;;3.70;2.60;;;;;;;25.84;34.06;101157.02;103157;1301;69144;-86
2023/09/06 02:07:39;;;;;;;4.30;2.30;;;;;;;25.82;34.21;101158.86;103164;1302;69372;-86
2023/09/06 02:10:05;;;;;;;2.70;2.50;;;;;;;25.83;33.91;101160.00;103129;1299;69279;-86
2023/09/06 02:12:30;;;;;;;2.60;2.40;;;;;;;25.82;33.86;101161.98;103252;1300;69277;-86
2023/09/06 02:14:56;;;;;;;2.80;2.30;;;;;;;25.83;34.28;101157.33;103207;1298;67358;-86
2023/09/06 02:17:24;;;;;;;2.40;2.20;;;;;;;25.82;34.20;101162.13;103176;1302;69269;-86
2023/09/06 02:20:17;;;;;;;2.90;2.60;;;;;;;25.82;34.16;101163.78;103140;1302;73345;-91
2023/09/06 02:25:25;;;;;;;4.00;2.60;;;;;;;25.81;34.25;101165.33;103200;1297;67907;-85
2023/09/06 02:27:51;;;;;;;3.40;2.30;;;;;;;25.80;34.10;101166.00;103131;1297;69173;-85
2023/09/06 02:30:17;;;;;;;2.70;2.30;;;;;;;25.81;34.03;101169.04;103289;1301;67379;-85
2023/09/06 02:32:42;;;;;;;2.30;2.10;;;;;;;25.82;33.77;101171.66;103302;1300;69237;-85
2023/09/06 02:35:08;;;;;;;2.30;2.10;;;;;;;25.81;34.00;101171.62;103283;1297;69705;-85
2023/09/06 02:37:34;;;;;;;2.80;2.20;;;;;;;25.82;33.91;101174.80;103069;1297;69261;-85
2023/09/06 02:40:00;;;;;;;2.50;2.30;;;;;;;25.81;33.74;101170.07;103147;1297;69233;-85
2023/09/06 02:42:26;;;;;;;2.80;2.40;;;;;;;25.81;33.83;101167.65;103244;1297;69217;-85
2023/09/06 02:44:52;;;;;;;2.20;2.00;;;;;;;25.81;33.93;101165.95;103227;1302;69277;-85
2023/09/06 02:47:17;;;;;;;3.10;2.40;;;;;;;25.81;33.90;101165.79;103312;1297;69246;-85
2023/09/06 02:49:55;;;;;;;2.60;2.30;;;;;;;25.81;33.95;101168.05;103361;1297;69392;-90
2023/09/06 02:52:28;;;;;;;2.50;2.30;;;;;;;25.81;33.70;101167.91;103279;1297;74586;-85
2023/09/06 02:54:57;;;;;;;3.90;2.50;;;;;;;25.81;33.96;101171.83;103589;1297;69244;-85
2023/09/06 02:57:23;;;;;;;3.30;2.50;;;;;;;25.80;33.83;101172.24;103458;1298;69233;-85
2023/09/06 02:59:51;;;;;;;2.40;2.20;;;;;;;25.80;33.71;101171.52;103305;1300;69307;-85
2023/09/06 03:02:21;;;;;;;2.60;2.40;;;;;;;25.81;33.99;101175.28;103060;1303;69116;-86
2023/09/06 03:04:48;;;;;;;2.60;2.30;;;;;;;25.80;33.96;101173.53;103066;1300;73388;-85
2023/09/06 03:07:15;;;;;;;3.40;2.50;;;;;;;25.80;33.91;101172.55;103105;1300;72977;-85
2023/09/06 03:09:40;;;;;;;3.10;2.40;;;;;;;25.80;33.71;101174.92;103176;1300;69153;-85
2023/09/06 03:12:12;;;;;;;4.40;2.50;;;;;;;25.78;33.53;101175.98;102966;1300;69246;-85
2023/09/06 03:14:44;;;;;;;3.50;2.60;;;;;;;25.73;33.04;101176.69;103176;1301;69328;-85
2023/09/06 03:17:18;;;;;;;3.10;2.30;;;;;;;25.66;32.48;101176.08;103070;1299;73862;-85
2023/09/06 03:19:48;;;;;;;2.60;2.20;;;;;;;25.59;32.28;101178.36;103316;1302;69271;-85
2023/09/06 03:22:13;;;;;;;2.90;2.40;;;;;;;25.53;32.61;101179.84;103212;1300;67110;-86
2023/09/06 03:24:43;;;;;;;14.60;3.00;;;;;;;25.50;32.82;101181.73;103070;1304;68112;-86
2023/09/06 03:27:15;;;;;;;16.70;3.20;;;;;;;25.46;33.16;101177.70;103128;1298;67698;-85
2023/09/06 03:29:40;;;;;;;19.20;4.00;;;;;;;25.42;33.00;101180.23;103196;1298;73677;-85
2023/09/06 03:32:09;;;;;;;7.10;3.10;;;;;;;25.39;33.01;101184.14;103294;1302;68450;-85
2023/09/06 03:34:35;;;;;;;6.50;3.10;;;;;;;25.34;32.61;101185.83;103207;1300;69173;-86
2023/09/06 03:37:04;;;;;;;5.30;4.10;;;;;;;25.28;32.49;101191.48;103191;1299;69267;-86
2023/09/06 03:39:37;;;;;;;6.40;4.10;;;;;;;25.22;32.27;101192.87;103038;1300;288954;-86
2023/09/06 03:42:08;;;;;;;7.20;4.10;;;;;;;25.17;32.56;101196.20;103260;1300;73601;-85
2023/09/06 03:44:37;;;;;;;4.90;3.80;;;;;;;25.12;32.68;101199.37;103437;1298;69284;-86
2023/09/06 03:47:13;;;;;;;3.40;2.90;;;;;;;25.08;32.54;101201.65;103282;1299;69147;-86
2023/09/06 03:49:40;;;;;;;3.70;2.60;;;;;;;25.00;32.17;101202.99;103246;1300;69233;-85
2023/09/06 03:52:06;;;;;;;5.10;2.90;;;;;;;24.89;32.06;101202.58;103170;1300;69045;-86
2023/09/06 03:54:34;;;;;;;6.20;2.70;;;;;;;24.82;31.84;101203.64;103240;1300;69150;-85
2023/09/06 03:57:03;;;;;;;6.50;2.80;;;;;;;24.73;31.87;101200.58;103146;1300;69786;-86
2023/09/06 03:59:35;;;;;;;3.30;2.40;;;;;;;24.63;31.69;101202.45;103121;1306;69870;-86
2023/09/06 04:02:02;;;;;;;4.10;2.70;;;;;;;24.56;31.81;101203.25;103290;1299;69345;-86
2023/09/06 04:04:34;;;;;;;5.60;3.00;;;;;;;24.53;31.80;101204.41;103114;1305;69202;-92
2023/09/06 04:07:00;;;;;;;8.00;2.80;;;;;;;24.50;31.85;101205.95;103221;1300;73669;-85
2023/09/06 04:09:30;;;;;;;9.40;3.30;;;;;;;24.48;31.62;101206.16;103028;1303;69536;-86
2023/09/06 04:11:58;;;;;;;5.40;2.80;;;;;;;24.44;31.64;101204.53;103297;1300;69179;-86
2023/09/06 04:14:23;;;;;;;6.00;2.90;;;;;;;24.38;31.63;101205.57;103323;1300;69118;-86
2023/09/06 04:16:49;;;;;;;6.00;2.50;;;;;;;24.34;31.61;101210.05;103375;1299;69232;-86
2023/09/06 04:19:14;;;;;;;4.70;2.70;;;;;;;24.33;31.53;101212.20;103288;1299;69256;-86
2023/09/06 04:21:40;;;;;;;5.40;2.80;;;;;;;24.35;31.53;101217.30;103521;1300;69283;-86
2023/09/06 04:24:08;;;;;;;6.60;2.80;;;;;;;24.35;31.48;101215.20;103747;1301;69265;-86
2023/09/06 04:26:34;;;;;;;4.40;2.90;;;;;;;24.33;31.50;101216.48;103623;1300;67563;-86
2023/09/06 04:29:03;;;;;;;6.00;2.60;;;;;;;24.33;31.48;101220.34;104083;1302;69055;-86
2023/09/06 04:31:30;;;;;;;6.70;2.80;;;;;;;24.33;31.44;101220.95;103602;1299;66522;-87
2023/09/06 04:33:58;;;;;;;5.40;2.90;;;;;;;24.32;31.42;101220.15;103248;1299;69189;-85
2023/09/06 04:36:24;;;;;;;4.40;2.90;;;;;;;24.32;31.26;101222.81;103252;1298;71586;-85
2023/09/06 04:38:49;;;;;;;5.40;2.70;;;;;;;24.30;31.34;101223.18;103474;1298;69290;-86
2023/09/06 04:41:14;;;;;;;4.30;3.00;;;;;;;24.29;31.18;101222.20;103288;1299;69460;-86
2023/09/06 04:43:40;;;;;;;6.70;3.00;;;;;;;24.28;31.03;101228.02;103455;1303;69277;-85
2023/09/06 04:46:06;;;;;;;12.10;3.30;;;;;;;24.24;31.08;101227.77;103445;1301;69276;-86
2023/09/06 04:48:32;;;;;;;5.10;2.90;;;;;;;24.22;31.05;101229.52;103428;1300;69241;-85
2023/09/06 04:50:59;;;;;;;8.70;2.90;;;;;;;24.22;31.18;101235.53;103414;1300;69275;-86
2023/09/06 04:53:24;;;;;;;6.30;2.90;;;;;;;24.22;31.15;101240.41;103349;1299;69239;-86
2023/09/06 04:55:52;;;;;;;6.00;3.10;;;;;;;24.24;31.07;101236.77;103310;1304;69319;-86
2023/09/06 04:58:21;;;;;;;5.40;2.60;;;;;;;24.24;31.16;101240.47;103407;1302;68297;-91
2023/09/06 05:00:47;;;;;;;4.90;3.10;;;;;;;24.24;31.22;101243.86;103528;1300;69179;-85
2023/09/06 05:03:19;;;;;;;6.40;3.10;;;;;;;24.27;31.25;101245.50;103665;1299;69181;-86
2023/09/06 05:05:45;;;;;;;9.40;3.20;;;;;;;24.31;31.22;101245.70;103872;1302;69180;-86
2023/09/06 05:08:11;;;;;;;8.60;2.80;;;;;;;24.34;31.28;101247.08;104930;1299;69071;-86
2023/09/06 05:10:37;;;;;;;6.10;2.90;;;;;;;24.35;31.28;101243.48;105032;1299;67179;-86
2023/09/06 05:15:47;;;;;;;7.00;3.00;;;;;;;24.34;31.13;101251.45;104978;1299;73666;-86
2023/09/06 05:18:16;;;;;;;9.60;2.80;;;;;;;24.36;30.95;101256.43;105060;1298;67821;-86
2023/09/06 05:20:41;;;;;;;5.20;2.90;;;;;;;24.38;31.25;101260.55;105100;1297;69146;-86
2023/09/06 05:23:11;;;;;;;10.10;2.80;;;;;;;24.39;31.30;101263.73;105048;1298;67830;-86
2023/09/06 05:25:36;;;;;;;8.80;5.60;;;;;;;24.41;31.30;101267.75;104887;1300;68378;-86
2023/09/06 05:30:39;;;;;;;7.00;4.00;;;;;;;24.42;31.31;101264.92;103656;1298;70168;-86
2023/09/06 05:33:05;;;;;;;9.20;4.40;;;;;;;24.43;31.28;101270.88;103670;1297;69260;-86
2023/09/06 05:35:30;;;;;;;9.10;4.90;;;;;;;24.44;31.22;101273.86;103506;1297;69224;-86
2023/09/06 05:37:56;;;;;;;9.30;4.40;;;;;;;24.46;31.40;101276.17;103597;1297;69379;-86
2023/09/06 05:40:24;;;;;;;8.50;4.20;;;;;;;24.48;31.33;101275.70;103575;1297;69304;-86
2023/09/06 05:42:50;;;;;;;37.00;4.50;;;;;;;24.48;31.27;101272.94;103448;1297;69488;-86
2023/09/06 05:45:17;;;;;;;28.20;4.20;;;;;;;24.48;31.33;101281.21;103471;1297;67119;-85
2023/09/06 05:47:43;;;;;;;15.40;5.50;;;;;;;24.49;31.31;101282.19;103639;1299;69229;-85
2023/09/06 05:50:08;;;;;;;28.40;16.30;;;;;;;24.52;31.33;101286.16;103754;1297;70086;-85
2023/09/06 05:52:34;;;;;;;24.50;15.20;;;;;;;24.52;31.24;101285.59;103814;1302;69287;-85
2023/09/06 05:57:33;;;;;;;12.00;5.20;;;;;;;24.47;31.21;101289.02;103723;1296;69100;-85
2023/09/06 05:59:59;;;;;;;9.70;4.30;;;;;;;24.45;31.33;101285.84;103709;1297;70392;-85
2023/09/06 06:02:25;;;;;;;9.00;4.30;;;;;;;24.48;31.24;101288.05;103641;1297;69222;-86
2023/09/06 06:04:50;;;;;;;28.90;5.10;;;;;;;24.50;31.30;101286.20;103679;1296;69268;-86
2023/09/06 06:07:17;;;;;;;92.90;7.20;;;;;;;24.52;31.22;101284.14;103619;1296;69904;-87
2023/09/06 06:09:43;;;;;;;76.70;6.90;;;;;;;24.55;31.36;101280.33;103522;1300;69304;-86
2023/09/06 06:12:13;;;;;;;36.70;5.00;;;;;;;24.58;31.44;101281.55;103863;1300;69256;-86
2023/09/06 06:14:40;;;;;;;19.40;4.40;;;;;;;24.62;31.46;101277.42;103365;1300;67998;-86
2023/09/06 06:17:06;;;;;;;15.80;4.30;;;;;;;24.66;31.46;101283.45;103658;1300;67425;-86
2023/09/06 06:19:37;;;;;;;7.80;3.70;;;;;;;24.66;31.43;101285.38;103510;1299;69187;-86
2023/09/06 06:22:03;;;;;;;7.30;5.10;;;;;;;24.66;31.65;101283.39;103442;1299;69208;-87
2023/09/06 06:24:30;;;;;;;21.30;6.00;;;;;;;24.67;31.69;101285.86;103501;1298;69153;-85
2023/09/06 06:26:56;;;;;;;12.30;4.40;;;;;;;24.67;31.56;101289.60;103471;1299;68901;-85
2023/09/06 06:29:22;;;;;;;14.20;4.70;;;;;;;24.68;31.79;101286.52;103572;1297;67215;-86
2023/09/06 06:31:48;;;;;;;24.80;4.50;;;;;;;24.71;32.04;101283.95;103661;1300;69185;-86
2023/09/06 06:34:14;;;;;;;227.30;15.90;;;;;;;24.73;32.01;101287.51;103517;1298;69280;-86
2023/09/06 06:36:40;;;;;;;83.00;7.90;;;;;;;24.75;32.39;101289.67;103575;1300;69270;-86
2023/09/06 06:39:10;;;;;;;42.50;5.70;;;;;;;24.79;32.53;101294.45;103373;1302;67894;-85
2023/09/06 06:41:36;;;;;;;26.00;4.70;;;;;;;24.81;32.65;101296.48;103404;1299;69330;-85
2023/09/06 06:44:01;;;;;;;8.40;4.20;;;;;;;24.82;32.43;101294.84;103518;1298;69374;-85
2023/09/06 06:46:28;;;;;;;10.50;3.80;;;;;;;24.84;32.65;101293.65;103506;1298;69237;-86
2023/09/06 06:48:57;;;;;;;5.90;3.50;;;;;;;24.86;32.63;101292.41;103531;1298;69476;-91
2023/09/06 06:51:27;;;;;;;7.60;3.70;;;;;;;24.89;32.54;101292.70;103460;1302;74562;-85
2023/09/06 06:53:52;;;;;;;13.30;3.70;;;;;;;24.92;32.66;101292.75;103586;1299;69131;-85
2023/09/06 06:56:21;;;;;;;14.30;3.80;;;;;;;24.95;32.70;101293.66;103742;1298;66900;-85
2023/09/06 06:58:50;;;;;;;12.90;4.10;;;;;;;24.96;32.63;101295.83;103883;1303;67495;-84
2023/09/06 07:01:16;;;;;;;15.50;4.10;;;;;;;24.96;32.67;101297.11;103590;1300;69177;-84
2023/09/06 07:06:14;;;;;;;9.20;3.90;;;;;;;24.95;33.29;101291.55;103978;1297;69174;-84
2023/09/06 07:08:40;;;;;;;10.30;3.90;;;;;;;24.96;33.58;101292.58;103532;1297;69809;-83
2023/09/06 07:11:06;;;;;;;10.10;4.20;;;;;;;24.97;34.06;101291.39;103574;1296;69230;-84
2023/09/06 07:13:33;;;;;;;17.60;4.50;;;;;;;24.96;34.09;101290.42;103524;1300;69220;-84
2023/09/06 07:15:59;;;;;;;15.50;4.90;;;;;;;24.96;34.26;101290.88;103552;1300;69628;-85
2023/09/06 07:18:25;;;;;;;12.70;5.90;;;;;;;24.96;34.50;101289.90;103598;1299;69266;-85
2023/09/06 07:20:50;;;;;;;12.30;6.40;;;;;;;24.97;34.85;101290.52;103506;1298;69201;-85
2023/09/06 07:23:16;;;;;;;6.90;5.40;;;;;;;24.96;34.90;101288.36;103664;1296;68064;-85
2023/09/06 07:25:46;;;;;;;8.70;5.00;;;;;;;24.97;34.76;101287.43;103530;1299;69153;-86
2023/09/06 07:28:11;;;;;;;7.60;4.30;;;;;;;24.98;34.75;101291.08;103515;1296;69261;-85
2023/09/06 07:33:10;;;;;;;7.00;3.60;;;;;;;24.99;34.46;101289.11;103618;1296;69267;-86
2023/09/06 07:35:36;;;;;;;8.40;3.80;;;;;;;25.00;34.58;101288.10;103507;1296;69251;-85
2023/09/06 07:38:01;;;;;;;5.70;3.90;;;;;;;25.03;34.43;101287.15;103511;1297;69311;-86
2023/09/06 07:40:27;;;;;;;9.60;4.90;;;;;;;25.05;34.19;101290.84;103501;1297;70237;-84
2023/09/06 07:42:53;;;;;;;8.80;4.10;;;;;;;25.07;34.28;101285.64;103407;1297;69186;-85
2023/09/06 07:45:18;;;;;;;4.90;3.90;;;;;;;25.10;34.41;101290.77;103416;1297;69283;-86
2023/09/06 07:47:44;;;;;;;9.30;3.90;;;;;;;25.11;34.19;101291.45;103577;1297;69233;-86
2023/09/06 07:50:09;;;;;;;9.50;3.90;;;;;;;25.14;34.39;101293.04;103414;1297;69367;-86
2023/09/06 07:52:38;;;;;;;10.00;3.90;;;;;;;25.16;34.35;101288.89;103613;1297;69230;-85
2023/09/06 07:55:04;;;;;;;9.90;4.00;;;;;;;25.18;34.18;101296.30;103443;1297;67086;-86
2023/09/06 08:00:05;;;;;;;6.60;3.80;;;;;;;25.21;34.33;101291.96;103667;1301;73009;-86
2023/09/06 08:02:30;;;;;;;5.70;4.10;;;;;;;25.24;34.28;101292.00;103445;1298;69262;-86
2023/09/06 08:04:57;;;;;;;7.80;3.70;;;;;;;25.28;34.24;101294.70;103579;1301;69219;-86
2023/09/06 08:07:23;;;;;;;10.40;4.10;;;;;;;25.30;34.08;101295.57;103701;1299;69188;-85
2023/09/06 08:09:49;;;;;;;5.60;3.60;;;;;;;25.33;33.95;101297.01;103864;1297;69615;-85
2023/09/06 08:12:15;;;;;;;8.90;4.10;;;;;;;25.33;34.16;101294.89;103581;1297;69162;-85
2023/09/06 08:14:42;;;;;;;5.20;3.60;;;;;;;25.34;34.30;101296.94;103972;1303;69223;-85
2023/09/06 08:17:08;;;;;;;11.30;4.00;;;;;;;25.37;34.17;101294.92;104389;1299;69204;-86
2023/09/06 08:19:33;;;;;;;14.00;4.30;;;;;;;25.38;34.32;101298.63;104673;1299;69297;-85
2023/09/06 08:21:59;;;;;;;10.10;3.60;;;;;;;25.41;34.27;101299.17;103617;1298;69370;-87
2023/09/06 08:26:58;;;;;;;8.90;3.90;;;;;;;25.45;34.34;101293.66;103632;1293;67897;-86
2023/09/06 08:29:23;;;;;;;29.40;4.30;;;;;;;25.48;34.34;101300.09;103546;1296;69229;-85
2023/09/06 08:31:49;;;;;;;14.70;3.90;;;;;;;25.49;34.44;101299.83;103384;1301;69320;-85
2023/09/06 08:34:14;;;;;;;9.90;3.40;;;;;;;25.50;34.42;101297.30;103502;1296;69196;-85
2023/09/06 08:36:40;;;;;;;16.40;4.10;;;;;;;25.52;34.24;101301.83;103457;1300;69253;-86
2023/09/06 08:39:08;;;;;;;27.80;5.10;;;;;;;25.53;34.54;101306.14;103844;1296;69287;-85
2023/09/06 08:41:34;;;;;;;19.60;4.00;;;;;;;25.53;34.36;101305.32;104055;1298;69265;-86
2023/09/06 08:44:03;;;;;;;6.00;3.50;;;;;;;25.54;34.36;101301.76;103728;1302;68221;-86
2023/09/06 08:46:33;;;;;;;9.40;3.50;;;;;;;25.55;34.42;101303.40;103503;1299;67523;-85
2023/09/06 08:48:59;;;;;;;9.80;3.30;;;;;;;25.54;34.29;101304.63;103564;1297;67586;-85
2023/09/06 08:51:36;;;;;;;7.00;3.40;;;;;;;25.54;34.36;101305.81;103523;1302;68996;-91
2023/09/06 08:54:08;;;;;;;10.50;4.80;;;;;;;25.55;34.23;101306.02;103496;1297;69156;-85
2023/09/06 08:56:34;;;;;;;9.20;4.30;;;;;;;25.55;34.15;101313.65;103548;1297;74366;-86
2023/09/06 08:58:59;;;;;;;7.60;4.70;;;;;;;25.55;34.13;101315.61;103473;1297;69196;-85
2023/09/06 09:01:25;;;;;;;19.00;8.70;;;;;;;25.56;33.98;101310.35;103501;1297;69375;-85
2023/09/06 09:03:51;;;;;;;20.90;16.60;;;;;;;25.55;33.85;101306.33;103490;1301;69277;-86
2023/09/06 09:08:50;;;;;;;11.30;6.20;;;;;;;25.56;33.99;101308.28;103469;1297;72929;-87
2023/09/06 09:11:19;;;;;;;7.90;5.50;;;;;;;25.57;33.88;101310.34;103432;1297;69369;-87
2023/09/06 09:13:45;;;;;;;7.50;5.00;;;;;;;25.58;33.75;101311.16;103561;1297;69306;-85
2023/09/06 09:16:17;;;;;;;10.70;4.40;;;;;;;25.59;33.97;101315.58;103456;1302;69389;-86
2023/09/06 09:18:43;;;;;;;11.10;3.60;;;;;;;25.61;34.17;101315.10;103612;1300;69192;-86
2023/09/06 09:23:55;;;;;;;6.00;3.70;;;;;;;25.63;34.17;101307.06;103580;1297;69169;-87
2023/09/06 09:26:21;;;;;;;5.60;3.40;;;;;;;25.65;33.99;101304.38;103594;1302;69243;-88
2023/09/06 09:28:49;;;;;;;5.00;3.50;;;;;;;25.67;33.85;101308.89;103623;1297;69140;-88
2023/09/06 09:31:15;;;;;;;5.90;3.30;;;;;;;25.69;33.93;101312.02;103628;1297;69303;-87
2023/09/06 09:33:44;;;;;;;5.60;3.00;;;;;;;25.71;34.02;101310.16;103513;1297;69379;-87
2023/09/06 09:42:22;;;;;;;9.30;4.10;;;;;;;25.72;33.79;101306.48;105234;1296;69053;-90
2023/09/06 09:44:59;;;;;;;6.70;4.20;;;;;;;25.73;33.68;101306.90;104569;1297;69109;-88
2023/09/06 09:47:57;;;;;;;5.70;3.20;;;;;;;25.73;33.79;101304.27;104523;1297;75089;-87
2023/09/06 09:50:28;;;;;;;8.70;3.70;;;;;;;25.74;33.60;101303.94;103619;1304;69192;-87
2023/09/06 09:52:54;;;;;;;7.40;4.10;;;;;;;25.73;33.52;101308.64;103439;1297;67092;-86
2023/09/06 09:55:21;;;;;;;5.00;4.30;;;;;;;25.74;33.48;101304.21;103607;1297;69314;-88
2023/09/06 09:57:46;;;;;;;12.00;4.50;;;;;;;25.75;33.57;101303.95;103331;1297;67778;-85
2023/09/06 10:00:13;;;;;;;7.30;3.80;;;;;;;25.76;33.22;101305.64;103580;1296;69275;-90
2023/09/06 10:02:41;;;;;;;6.40;5.40;;;;;;;25.77;33.34;101308.91;103485;1300;69924;-84
2023/09/06 10:05:29;;;;;;;10.20;5.50;;;;;;;25.79;33.38;101303.59;103762;1302;67897;-84
2023/09/06 10:07:55;;;;;;;7.70;4.70;;;;;;;25.80;33.31;101297.40;103541;1297;69312;-83
2023/09/06 10:10:53;;;;;;;8.20;3.60;;;;;;;25.81;33.47;101295.18;103652;1297;67661;-84
2023/09/06 10:13:19;;;;;;;4.50;3.70;;;;;;;25.81;33.34;101295.48;103591;1297;67242;-84
2023/09/06 10:15:46;;;;;;;7.40;3.90;;;;;;;25.81;33.23;101284.30;103314;1298;69300;-84
2023/09/06 10:18:11;;;;;;;6.80;3.50;;;;;;;25.82;33.09;101282.86;103216;1297;69385;-89
2023/09/06 10:20:37;;;;;;;8.90;3.70;;;;;;;25.83;33.18;101282.45;103185;1297;69642;-84
2023/09/06 10:23:05;;;;;;;6.60;3.70;;;;;;;25.84;33.18;101287.59;103767;1299;69343;-84
2023/09/06 10:25:31;;;;;;;5.70;3.80;;;;;;;25.85;33.10;101285.20;103974;1297;69294;-84
2023/09/06 10:27:57;;;;;;;7.20;4.30;;;;;;;25.86;33.08;101284.48;103427;1299;69292;-84
2023/09/06 10:30:51;;;;;;;6.50;3.80;;;;;;;25.88;33.22;101287.35;103313;1303;69307;-84
2023/09/06 10:33:42;;;;;;;6.00;3.50;;;;;;;25.90;33.04;101288.57;103695;1297;66975;-84
2023/09/06 10:36:08;;;;;;;6.90;3.50;;;;;;;25.91;32.88;101288.56;103287;1296;73632;-89
2023/09/06 10:39:04;;;;;;;7.00;3.10;;;;;;;25.91;32.83;101285.77;103092;1305;69322;-84
2023/09/06 10:41:29;;;;;;;6.10;3.70;;;;;;;25.92;32.87;101282.98;103380;1302;69278;-84
2023/09/06 10:43:58;;;;;;;10.20;4.60;;;;;;;25.93;32.88;101275.61;103368;1299;69351;-84
2023/09/06 10:46:26;;;;;;;8.80;4.30;;;;;;;25.94;32.64;101280.70;103363;1296;69121;-84
2023/09/06 10:49:22;;;;;;;4.60;4.00;;;;;;;25.94;32.94;101282.50;103356;1297;73668;-84
2023/09/06 10:51:57;;;;;;;5.90;4.70;;;;;;;25.96;32.97;101281.92;103269;1299;69092;-84
2023/09/06 10:54:24;;;;;;;9.90;4.50;;;;;;;25.96;32.82;101279.60;103396;1299;69220;-85
2023/09/06 10:56:55;;;;;;;6.40;3.50;;;;;;;25.99;32.82;101279.95;103390;1300;70186;-85
2023/09/06 10:59:22;;;;;;;6.10;3.10;;;;;;;25.99;33.04;101273.39;103719;1296;69819;-83
2023/09/06 11:02:10;;;;;;;10.60;3.00;;;;;;;26.00;32.81;101272.46;103634;1303;74455;-84
2023/09/06 11:04:36;;;;;;;10.50;3.40;;;;;;;26.00;32.67;101272.88;103505;1299;69021;-83
2023/09/06 11:07:09;;;;;;;7.70;3.40;;;;;;;26.00;32.47;101266.98;103563;1304;69182;-83
2023/09/06 11:09:38;;;;;;;5.10;3.50;;;;;;;26.01;32.48;101258.83;103647;1297;67142;-85
2023/09/06 11:12:04;;;;;;;5.50;3.60;;;;;;;26.02;32.53;101257.48;103506;1299;67808;-85
2023/09/06 11:14:30;;;;;;;6.00;3.70;;;;;;;26.03;32.87;101252.63;103578;1300;69226;-83
2023/09/06 11:16:55;;;;;;;7.40;3.50;;;;;;;26.03;32.74;101252.98;103570;1296;69119;-83
2023/09/06 11:19:31;;;;;;;6.60;3.20;;;;;;;26.04;32.75;101254.01;103335;1299;69165;-83
2023/09/06 11:22:07;;;;;;;7.30;3.80;;;;;;;26.04;32.55;101251.89;103636;1300;69230;-83
2023/09/06 11:24:36;;;;;;;6.20;3.10;;;;;;;26.05;32.70;101249.05;103632;1297;69291;-84
2023/09/06 11:27:37;;;;;;;7.50;3.60;;;;;;;26.05;32.68;101245.75;103475;1297;73611;-85
2023/09/06 11:30:10;;;;;;;7.20;3.50;;;;;;;26.05;32.71;101237.91;103609;1300;69216;-85
2023/09/06 11:32:39;;;;;;;5.50;3.70;;;;;;;26.06;32.73;101230.58;103525;1302;69203;-83
2023/09/06 11:35:08;;;;;;;6.10;3.50;;;;;;;26.06;32.84;101226.25;103613;1297;69264;-83
2023/09/06 11:37:38;;;;;;;4.90;3.60;;;;;;;26.07;32.57;101228.20;103718;1302;69154;-83
2023/09/06 11:40:15;;;;;;;6.80;3.40;;;;;;;26.07;32.55;101223.50;103587;1300;73519;-84
2023/09/06 11:42:41;;;;;;;5.40;3.40;;;;;;;26.08;32.64;101222.56;103621;1299;69205;-83
2023/09/06 11:45:09;;;;;;;4.60;3.40;;;;;;;26.10;32.69;101211.77;103577;1300;69231;-84
2023/09/06 11:47:35;;;;;;;7.00;3.30;;;;;;;26.10;32.87;101215.95;103383;1302;69268;-84
2023/09/06 11:50:05;;;;;;;4.90;4.20;;;;;;;26.11;32.66;101212.70;103498;1299;69284;-84
2023/09/06 11:52:31;;;;;;;6.20;4.00;;;;;;;26.12;32.71;101206.77;103598;1300;73755;-84
2023/09/06 11:54:58;;;;;;;7.40;4.20;;;;;;;26.11;32.57;101205.90;103757;1299;68363;-84